Terminal Aerodrome Forecast
Issued by NWS Sterling, VA

Current Version | Previous Version | Graphics & Text | Print | Product List | Glossary On
Versions: 1 2 3 4 5 6 7 8 9 10 11 12 13 14 15 16 17 18 19 20 21 22 23 24 25 26
020
FTUS41 KLWX 301031 AAE
TAFDCA
TAF AMD
KDCA 301031Z 3011/0106 16006KT 2SM -RA BR BKN007 OVC012
     FM301600 17009KT 3SM BR OVC010
     FM301900 19012G20KT P6SM OVC015
     FM302100 19011KT 5SM SHRA OVC018
     FM010500 25009KT 4SM -SHRA BKN025=

USA.gov is the U.S. government's official web portal to all federal, state and local government web resources and services.